Share

San Jose Tobias Bolanos, Costa Rica

Escalante (ISANJOSB2) Elev 3911 ft | 9.93 °N, 84.07 °W | Change Station

Current weather conditions updated 3 seconds ago

Mostly Cloudy
Mostly Cloudy
68.5 °F
Feels Like 68.5 °F
N
2.0
Wind Variable Wind from ENE
Gusts 12.0 mph
Sunrise 5:23 AM
Sunset 5:47 PM
Moon Waning Gibbous

Today is forecast to be Warmer than yesterday. Thundershowers possible in the afternoon.

Pressure 30.09 in
Visibility 6.2 miles
Clouds Mostly Cloudy 3000 ft
Dew Point 62 °F
Humidity 80%
Rainfall 0.00 in
Snow Depth Not available.
UV 1.2 out of 16
Pollen Not available.
Air Quality Not available.
Flu Activity Not available.
METAR MRPV 201500Z 09012KT 9999 BKN030 23/16 A3009 NOSIG

More Conditions Fewer Conditions

Pressure 30.09 in
Visibility 6.2 miles
Clouds Mostly Cloudy 3000 ft
Dew Point 62 °F
Humidity 80%
Rainfall 0.00 in
Snow Depth Not available.
UV 1.2 out of 16
Pollen Not available.
Air Quality Not available.
Flu Activity Not available.
METAR MRPV 201500Z 09012KT 9999 BKN030 23/16 A3009 NOSIG

More Conditions Fewer Conditions

10-Day Weather Forecast

Almanac

Astronomy

Apr. 20, 2014 Rise Set
Actual Time 5:23 AM CST 5:47 PM CST
Civil Twilight 5:02 AM CST 6:08 PM CST
Nautical Twilight 4:37 AM CST 6:33 PM CST
Astronomical Twilight 4:12 AM CST 6:59 PM CST
Moon 11:00 PM CST 10:04 AM CST
Length of Visible Light 13h 06m
Length of Day
12h 23m
Tomorrow will be 0m 31s longer.
Waning Gibbous, 69% of the Moon is Illuminated
Today
Waning Gibbous
Apr 22
Last Quarter
Apr 29
New
May 6
First Quarter
May 14
Full

Today's Extremes

Country Highs Country Lows

Community

  • Easter Sunrise
    Easter Sunrise
  • Happy Easter
    Happy Easter
  • EARLY FOGGY MORNING
    EARLY FOGGY MORNING
  • Easter Greetings
    Easter Greetings
  • Sunny day at the coast-Cape Arago Lighthouse
    Sunny day at the coast-Cape Arago Lighthouse

WunderPhotos

Upload Photos

1,703,247 photos uploaded!

Nearby

Snow Depth

Not available.

Coastal Water Temperatures

Place Temperature
No Stations Reporting

Earthquake Activity

City Distance Mag. Time & Date
No recent earthquake activity has been reported nearby.
Minimum magnitude displayed is 2.5.

Nearby Weather Stations

Station Location Temp. Dew Point Humidity Wind Precip. Elev Updated Type
Escalante, San Jose 68.5 °F 62 °F 80% ENE  at  2.0 mph 0.00 in / hr 3911 ft 9:05 AM CST Rapid Fire
San Pedro 68.3 °F 60 °F 75% NE  at  2.0 mph 0.00 in / hr 3960 ft 9:01 AM CST Normal
La Union 64.0 °F 62 °F 92% North  at  2.2 mph 0.00 in / hr 4993 ft 9:04 AM CST Rapid Fire

Show More Stations Show Fewer Stations

What do you think?

We're not finished. Please let us know what you like, what you don't like, and what you are still missing.